Relevés horaires Beauvechain (Belgique)


Relevés horaires à Beauvechain - Lundi 06 Nov. 2017
Heure UTC1 Température [°C] Vent [km/h] Hum. [%] Pres.4 [hPa] Visi. [Km] Nébu. [octa] Préc.5 [mm] Cond.
2m. Res. Ros. Dir.2 Vit. Moy. Raf.3
23:00 3.4 3.4 1.7 NNO 0.0 -- 1.9 89 1026.9(-0.1/3h) 20 -- -- --
22:00 4.0 4.0 2.1 NNO 1.9 -- 1.9 87 1027(0.1/3h) 20 -- -- --
21:00 4.8 4.8 2.3 NNO 1.9 -- 3.7 84 1027.2(0.5/3h) 20 -- -- --
20:00 5.2 5.2 2.3 NNO 1.9 -- 1.9 82 1026.9(0.5/3h) 25 3/8 -- --
19:00 5.5 5.5 2.3 NNO 1.9 -- 3.7 80 1026.7(0.5/3h) 25 3/8 -- --
18:00 5.5 5.5 2.4 NNO 1.9 -- 11.1 80 1026.5(0.4/3h) 25 3/8 -- --
17:00 5.7 5.7 2.1 NNO 1.9 -- 5.6 78 1026.4(0.7/3h) 25 4/8 -- --
16:00 7.5 7.5 1.6 NNO 1.9 -- 1.9 66 1026(0.7/3h) 25 4/8 -- --
15:00 8.1 8.1 2.3 NNO 1.9 -- 11.1 67 1025.9(0.5/3h) 25 4/8 -- --
14:00 9.4 9.4 1.7 NNO 1.9 -- 11.1 59 1025.4(0.0/3h) 25 3/8 -- --
13:00 8.8 8.2 2.4 N 5.6 -- 7.4 64 1025.2(0.0/3h) 25 3/8 -- --
12:00 8.8 8.8 3.3 NNO 3.7 -- 9.3 68 1025.2(0.4/3h) 25 3/8 -- --
11:00 8.7 8.7 3.2 NO 3.7 -- 9.3 68 1025.2(0.9/3h) 25 3/8 -- --
10:00 7.7 7.7 3.5 NNO 1.9 -- 5.6 75 1025.2(1.6/3h) 25 3/8 -- --
09:00 5.9 5.9 3.8 NNO 1.9 -- 5.6 86 1025(1.9/3h) 25 3/8 -- --
08:00 4.4 4.4 3.2 NNO 1.9 -- 3.7 92 1024.5(2.3/3h) 25 4/8 -- --
07:00 3.9 3.9 3.0 NNO 1.9 -- 5.6 94 1023.7(2.1/3h) 15 4/8 -- --
06:00 3.5 3.5 2.5 O 3.7 -- 7.4 93 1023.2(2.0/3h) 20 4/8 trace/12h
--
05:00 4.5 4.5 3.3 NNO 1.9 -- 3.7 92 1022.2(1.8/3h) 20 7/8 -- --
04:00 5.0 5.0 3.9 NNO 1.9 -- 5.6 93 1021.6(1.9/3h) 20 -- -- --
03:00 4.0 4.0 3.0 ONO 3.7 -- 7.4 93 1021(1.5/3h) 16 -- -- --
02:00 4.1 4.1 3.4 O 3.7 -- 7.4 95 1020.2(1.3/3h) 14 -- -- --
01:00 4.1 4.1 3.2 OSO 3.7 -- 7.4 94 1019.7(1.1/3h) 14 -- -- --
00:00 4.3 3.1 2.9 OSO 5.6 -- 9.3 91 1019.3(1.0/3h) 20 -- -- --

1 Coordinated Universal Time. Actuellement il est 21:00 locale et 19:00 UTC.

2 Le vent souffle depuis la direction indiquée vers la direction oposée.

3 Les rafales max. sont disponible 40 min après l'heure du relevé.

4 Pour les stations d'altitude (plus de 600m) le géopotentiel du niveau le plus proche de la pression obligatoire est indiqué.

5 Les stations disposant d'un diffuseur peuvent indiquer "trace". Cela signifie que des précipitations ont touchés le sol mais que la quantité est inférieure à 0.1 mm.

Récapitulatif de la journée
Température [°C] Vent [km/h] Ensoleillement4 [h] Precipitations totale5 [mm] Pression [Hpa]
Min1 Max.2 Moy.3 Max. Min Max.
3.5 9.7 0 11.1 0 h 0 min 0 1019.3 1027.2

1 Température minimale relevée entre 18:00 UTC la veille et 18:00 UTC le jour donné.

2 Température maximale relevée entre 06:00 UTC le jour donné et 06:00 UTC le lendemain.

3 Vent moyen de la journée basé sur les relevés horaires.

4 Ensoleillement en heures relevé entre 06:00 UTC la veille et 06:00 UTC le jour donné.

5 Précipitations totales tombées entre 06:00 UTC la jour donné et 06:00 UTC le lendemain.

Graphiques horaires